sensor_id;sensor_type;location;lat;lon;timestamp;temperature;humidity
67273;DHT22;54190;49.770;9.250;2022-10-15T00:01:06;14.10;99.90
67273;DHT22;54190;49.770;9.250;2022-10-15T00:03:34;14.10;99.90
67273;DHT22;54190;49.770;9.250;2022-10-15T00:06:13;14.10;99.90
67273;DHT22;54190;49.770;9.250;2022-10-15T00:08:39;14.10;99.90
67273;DHT22;54190;49.770;9.250;2022-10-15T00:11:14;14.10;99.90
67273;DHT22;54190;49.770;9.250;2022-10-15T00:13:41;14.10;99.90
67273;DHT22;54190;49.770;9.250;2022-10-15T00:16:08;14.20;99.90
67273;DHT22;54190;49.770;9.250;2022-10-15T00:18:35;14.10;99.90
67273;DHT22;54190;49.770;9.250;2022-10-15T00:21:05;14.10;99.90
67273;DHT22;54190;49.770;9.250;2022-10-15T00:23:30;14.10;99.90
67273;DHT22;54190;49.770;9.250;2022-10-15T00:26:10;14.10;99.90
67273;DHT22;54190;49.770;9.250;2022-10-15T00:28:36;14.10;99.90
67273;DHT22;54190;49.770;9.250;2022-10-15T00:31:08;14.10;99.90
67273;DHT22;54190;49.770;9.250;2022-10-15T00:33:34;14.10;99.90
67273;DHT22;54190;49.770;9.250;2022-10-15T00:36:10;14.10;99.90
67273;DHT22;54190;49.770;9.250;2022-10-15T00:38:36;14.10;99.90
67273;DHT22;54190;49.770;9.250;2022-10-15T00:41:04;14.10;99.90
67273;DHT22;54190;49.770;9.250;2022-10-15T00:46:21;14.10;99.90
67273;DHT22;54190;49.770;9.250;2022-10-15T00:49:00;14.10;99.90
67273;DHT22;54190;49.770;9.250;2022-10-15T00:51:32;14.10;99.90
67273;DHT22;54190;49.770;9.250;2022-10-15T00:54:00;14.10;99.90
67273;DHT22;54190;49.770;9.250;2022-10-15T00:56:26;14.10;99.90
67273;DHT22;54190;49.770;9.250;2022-10-15T00:58:55;14.10;99.90
67273;DHT22;54190;49.770;9.250;2022-10-15T01:01:21;14.10;99.90
67273;DHT22;54190;49.770;9.250;2022-10-15T01:03:50;14.10;99.90
67273;DHT22;54190;49.770;9.250;2022-10-15T01:06:17;14.10;99.90
67273;DHT22;54190;49.770;9.250;2022-10-15T01:08:44;14.10;99.90
67273;DHT22;54190;49.770;9.250;2022-10-15T01:11:27;14.10;99.90
67273;DHT22;54190;49.770;9.250;2022-10-15T01:17:00;14.10;99.90
67273;DHT22;54190;49.770;9.250;2022-10-15T01:19:57;14.10;99.90
67273;DHT22;54190;49.770;9.250;2022-10-15T01:28:03;14.10;99.90
67273;DHT22;54190;49.770;9.250;2022-10-15T01:30:39;14.10;99.90
67273;DHT22;54190;49.770;9.250;2022-10-15T01:33:13;14.10;99.90
67273;DHT22;54190;49.770;9.250;2022-10-15T01:35:44;14.10;99.90
67273;DHT22;54190;49.770;9.250;2022-10-15T01:40:59;14.10;99.90
67273;DHT22;54190;49.770;9.250;2022-10-15T01:43:34;14.10;99.90
67273;DHT22;54190;49.770;9.250;2022-10-15T01:46:32;14.10;99.90
67273;DHT22;54190;49.770;9.250;2022-10-15T01:49:03;14.00;99.90
67273;DHT22;54190;49.770;9.250;2022-10-15T01:51:33;14.00;99.90
67273;DHT22;54190;49.770;9.250;2022-10-15T01:54:01;14.10;99.90
67273;DHT22;54190;49.770;9.250;2022-10-15T01:56:27;14.00;99.90
67273;DHT22;54190;49.770;9.250;2022-10-15T01:58:55;14.00;99.90
67273;DHT22;54190;49.770;9.250;2022-10-15T02:01:21;14.00;99.90
67273;DHT22;54190;49.770;9.250;2022-10-15T02:03:49;14.00;99.90
67273;DHT22;54190;49.770;9.250;2022-10-15T02:06:23;14.00;99.90
67273;DHT22;54190;49.770;9.250;2022-10-15T02:11:55;14.00;99.90
67273;DHT22;54190;49.770;9.250;2022-10-15T02:14:52;14.00;99.90
67273;DHT22;54190;49.770;9.250;2022-10-15T02:17:27;14.00;99.90
67273;DHT22;54190;49.770;9.250;2022-10-15T02:20:04;14.00;99.90
67273;DHT22;54190;49.770;9.250;2022-10-15T02:22:32;14.10;99.90
67273;DHT22;54190;49.770;9.250;2022-10-15T02:25:06;14.00;99.90
67273;DHT22;54190;49.770;9.250;2022-10-15T02:27:34;14.00;99.90
67273;DHT22;54190;49.770;9.250;2022-10-15T02:30:03;14.00;99.90
67273;DHT22;54190;49.770;9.250;2022-10-15T02:32:35;14.10;99.90
67273;DHT22;54190;49.770;9.250;2022-10-15T02:35:05;14.10;99.90
67273;DHT22;54190;49.770;9.250;2022-10-15T02:37:34;14.10;99.90
67273;DHT22;54190;49.770;9.250;2022-10-15T02:40:00;14.10;99.90
67273;DHT22;54190;49.770;9.250;2022-10-15T02:42:27;14.10;99.90
67273;DHT22;54190;49.770;9.250;2022-10-15T02:44:54;14.10;99.90
67273;DHT22;54190;49.770;9.250;2022-10-15T02:47:20;14.10;99.90
67273;DHT22;54190;49.770;9.250;2022-10-15T02:49:46;14.10;99.90
67273;DHT22;54190;49.770;9.250;2022-10-15T02:52:11;14.10;99.90
67273;DHT22;54190;49.770;9.250;2022-10-15T02:54:38;14.10;99.90
67273;DHT22;54190;49.770;9.250;2022-10-15T02:57:07;14.10;99.90
67273;DHT22;54190;49.770;9.250;2022-10-15T02:59:32;14.10;99.90
67273;DHT22;54190;49.770;9.250;2022-10-15T03:01:58;14.10;99.90
67273;DHT22;54190;49.770;9.250;2022-10-15T03:04:25;14.10;99.90
67273;DHT22;54190;49.770;9.250;2022-10-15T03:06:51;14.10;99.90
67273;DHT22;54190;49.770;9.250;2022-10-15T03:09:18;14.10;99.90
67273;DHT22;54190;49.770;9.250;2022-10-15T03:11:44;14.10;99.90
67273;DHT22;54190;49.770;9.250;2022-10-15T03:14:10;14.10;99.90
67273;DHT22;54190;49.770;9.250;2022-10-15T03:16:35;14.10;99.90
67273;DHT22;54190;49.770;9.250;2022-10-15T03:19:01;14.10;99.90
67273;DHT22;54190;49.770;9.250;2022-10-15T03:21:27;14.10;99.90
67273;DHT22;54190;49.770;9.250;2022-10-15T03:24:00;14.10;99.90
67273;DHT22;54190;49.770;9.250;2022-10-15T03:26:26;14.10;99.90
67273;DHT22;54190;49.770;9.250;2022-10-15T03:28:52;14.10;99.90
67273;DHT22;54190;49.770;9.250;2022-10-15T03:31:31;14.10;99.90
67273;DHT22;54190;49.770;9.250;2022-10-15T03:34:00;14.10;99.90
67273;DHT22;54190;49.770;9.250;2022-10-15T03:36:26;14.10;99.90
67273;DHT22;54190;49.770;9.250;2022-10-15T03:38:52;14.10;99.90
67273;DHT22;54190;49.770;9.250;2022-10-15T03:41:18;14.10;99.90
67273;DHT22;54190;49.770;9.250;2022-10-15T03:43:45;14.10;99.90
67273;DHT22;54190;49.770;9.250;2022-10-15T03:46:11;14.10;99.90
67273;DHT22;54190;49.770;9.250;2022-10-15T03:48:41;14.10;99.90
67273;DHT22;54190;49.770;9.250;2022-10-15T03:51:09;14.10;99.90
67273;DHT22;54190;49.770;9.250;2022-10-15T03:53:35;14.10;99.90
67273;DHT22;54190;49.770;9.250;2022-10-15T03:56:04;14.10;99.90
67273;DHT22;54190;49.770;9.250;2022-10-15T03:58:30;14.10;99.90
67273;DHT22;54190;49.770;9.250;2022-10-15T04:00:59;14.10;99.90
67273;DHT22;54190;49.770;9.250;2022-10-15T04:03:25;14.10;99.90
67273;DHT22;54190;49.770;9.250;2022-10-15T04:05:52;14.10;99.90
67273;DHT22;54190;49.770;9.250;2022-10-15T04:08:19;14.10;99.90
67273;DHT22;54190;49.770;9.250;2022-10-15T04:10:45;14.10;99.90
67273;DHT22;54190;49.770;9.250;2022-10-15T04:13:11;14.10;99.90
67273;DHT22;54190;49.770;9.250;2022-10-15T04:15:40;14.10;99.90
67273;DHT22;54190;49.770;9.250;2022-10-15T04:18:09;14.10;99.90
67273;DHT22;54190;49.770;9.250;2022-10-15T04:20:35;14.10;99.90
67273;DHT22;54190;49.770;9.250;2022-10-15T04:23:10;14.10;99.90
67273;DHT22;54190;49.770;9.250;2022-10-15T04:25:37;14.10;99.90
67273;DHT22;54190;49.770;9.250;2022-10-15T04:28:03;14.10;99.90
67273;DHT22;54190;49.770;9.250;2022-10-15T04:30:30;14.10;99.90
67273;DHT22;54190;49.770;9.250;2022-10-15T04:32:58;14.10;99.90
67273;DHT22;54190;49.770;9.250;2022-10-15T04:35:24;14.10;99.90
67273;DHT22;54190;49.770;9.250;2022-10-15T04:38:10;14.10;99.90
67273;DHT22;54190;49.770;9.250;2022-10-15T04:41:11;14.10;99.90
67273;DHT22;54190;49.770;9.250;2022-10-15T04:43:49;14.10;99.90
67273;DHT22;54190;49.770;9.250;2022-10-15T04:46:15;14.10;99.90
67273;DHT22;54190;49.770;9.250;2022-10-15T04:48:41;14.10;99.90
67273;DHT22;54190;49.770;9.250;2022-10-15T04:51:12;14.10;99.90
67273;DHT22;54190;49.770;9.250;2022-10-15T04:54:01;14.10;99.90
67273;DHT22;54190;49.770;9.250;2022-10-15T04:56:29;14.10;99.90
67273;DHT22;54190;49.770;9.250;2022-10-15T04:58:54;14.10;99.90
67273;DHT22;54190;49.770;9.250;2022-10-15T05:01:22;14.10;99.90
67273;DHT22;54190;49.770;9.250;2022-10-15T05:04:02;14.20;99.90
67273;DHT22;54190;49.770;9.250;2022-10-15T05:06:31;14.10;99.90
67273;DHT22;54190;49.770;9.250;2022-10-15T05:09:06;14.10;99.90
67273;DHT22;54190;49.770;9.250;2022-10-15T05:11:34;14.10;99.90
67273;DHT22;54190;49.770;9.250;2022-10-15T05:14:01;14.10;99.90
67273;DHT22;54190;49.770;9.250;2022-10-15T05:16:29;14.10;99.90
67273;DHT22;54190;49.770;9.250;2022-10-15T05:19:04;14.10;99.90
67273;DHT22;54190;49.770;9.250;2022-10-15T05:21:32;14.10;99.90
67273;DHT22;54190;49.770;9.250;2022-10-15T05:24:01;14.10;99.90
67273;DHT22;54190;49.770;9.250;2022-10-15T05:26:52;14.10;99.90
67273;DHT22;54190;49.770;9.250;2022-10-15T05:29:19;14.10;99.90
67273;DHT22;54190;49.770;9.250;2022-10-15T05:31:45;14.10;99.90
67273;DHT22;54190;49.770;9.250;2022-10-15T05:34:17;14.20;99.90
67273;DHT22;54190;49.770;9.250;2022-10-15T05:36:49;14.20;99.90
67273;DHT22;54190;49.770;9.250;2022-10-15T05:39:16;14.20;99.90
67273;DHT22;54190;49.770;9.250;2022-10-15T05:41:43;14.20;99.90
67273;DHT22;54190;49.770;9.250;2022-10-15T05:44:09;14.20;99.90
67273;DHT22;54190;49.770;9.250;2022-10-15T05:46:36;14.20;99.90
67273;DHT22;54190;49.770;9.250;2022-10-15T05:49:02;14.20;99.90
67273;DHT22;54190;49.770;9.250;2022-10-15T05:51:32;14.20;99.90
67273;DHT22;54190;49.770;9.250;2022-10-15T05:54:06;14.20;99.90
67273;DHT22;54190;49.770;9.250;2022-10-15T05:56:34;14.20;99.90
67273;DHT22;54190;49.770;9.250;2022-10-15T05:58:59;14.20;99.90
67273;DHT22;54190;49.770;9.250;2022-10-15T06:01:26;14.30;99.90
67273;DHT22;54190;49.770;9.250;2022-10-15T06:03:52;14.30;99.90
67273;DHT22;54190;49.770;9.250;2022-10-15T06:06:23;14.30;99.90
67273;DHT22;54190;49.770;9.250;2022-10-15T06:08:49;14.30;99.90
67273;DHT22;54190;49.770;9.250;2022-10-15T06:11:16;14.30;99.90
67273;DHT22;54190;49.770;9.250;2022-10-15T06:13:42;14.30;99.90
67273;DHT22;54190;49.770;9.250;2022-10-15T06:16:09;14.30;99.90
67273;DHT22;54190;49.770;9.250;2022-10-15T06:18:35;14.30;99.90
67273;DHT22;54190;49.770;9.250;2022-10-15T06:21:02;14.40;99.90
67273;DHT22;54190;49.770;9.250;2022-10-15T06:23:28;14.30;99.90
67273;DHT22;54190;49.770;9.250;2022-10-15T06:25:55;14.40;99.90
67273;DHT22;54190;49.770;9.250;2022-10-15T06:28:21;14.40;99.90
67273;DHT22;54190;49.770;9.250;2022-10-15T06:30:46;14.40;99.90
67273;DHT22;54190;49.770;9.250;2022-10-15T06:33:12;14.40;99.90
67273;DHT22;54190;49.770;9.250;2022-10-15T06:35:40;14.40;99.90
67273;DHT22;54190;49.770;9.250;2022-10-15T06:38:06;14.40;99.90
67273;DHT22;54190;49.770;9.250;2022-10-15T06:40:32;14.40;99.90
67273;DHT22;54190;49.770;9.250;2022-10-15T06:43:08;14.40;99.90
67273;DHT22;54190;49.770;9.250;2022-10-15T06:45:39;14.40;99.90
67273;DHT22;54190;49.770;9.250;2022-10-15T06:48:15;14.40;99.90
67273;DHT22;54190;49.770;9.250;2022-10-15T06:50:41;14.50;99.90
67273;DHT22;54190;49.770;9.250;2022-10-15T06:53:07;14.50;99.90
67273;DHT22;54190;49.770;9.250;2022-10-15T06:55:33;14.50;99.90
67273;DHT22;54190;49.770;9.250;2022-10-15T06:57:58;14.50;99.90
67273;DHT22;54190;49.770;9.250;2022-10-15T07:00:25;14.50;99.90
67273;DHT22;54190;49.770;9.250;2022-10-15T07:02:52;14.50;99.90
67273;DHT22;54190;49.770;9.250;2022-10-15T07:05:18;14.50;99.90
67273;DHT22;54190;49.770;9.250;2022-10-15T07:07:54;14.50;99.90
67273;DHT22;54190;49.770;9.250;2022-10-15T07:10:24;14.60;99.90
67273;DHT22;54190;49.770;9.250;2022-10-15T07:12:50;14.60;99.90
67273;DHT22;54190;49.770;9.250;2022-10-15T07:15:17;14.60;99.90
67273;DHT22;54190;49.770;9.250;2022-10-15T07:17:50;14.60;99.90
67273;DHT22;54190;49.770;9.250;2022-10-15T07:20:17;14.60;99.90
67273;DHT22;54190;49.770;9.250;2022-10-15T07:22:44;14.60;99.90
67273;DHT22;54190;49.770;9.250;2022-10-15T07:25:09;14.60;99.90
67273;DHT22;54190;49.770;9.250;2022-10-15T07:27:37;14.60;99.90
67273;DHT22;54190;49.770;9.250;2022-10-15T07:30:04;14.60;99.90
67273;DHT22;54190;49.770;9.250;2022-10-15T07:32:30;14.70;99.90
67273;DHT22;54190;49.770;9.250;2022-10-15T07:34:56;14.70;99.90
67273;DHT22;54190;49.770;9.250;2022-10-15T07:37:22;14.70;99.90
67273;DHT22;54190;49.770;9.250;2022-10-15T07:39:48;14.80;99.90
67273;DHT22;54190;49.770;9.250;2022-10-15T07:42:14;14.80;99.90
67273;DHT22;54190;49.770;9.250;2022-10-15T07:44:39;14.80;99.90
67273;DHT22;54190;49.770;9.250;2022-10-15T07:47:08;14.80;99.90
67273;DHT22;54190;49.770;9.250;2022-10-15T07:49:56;14.90;99.90
67273;DHT22;54190;49.770;9.250;2022-10-15T07:52:22;14.90;99.90
67273;DHT22;54190;49.770;9.250;2022-10-15T07:54:48;14.90;99.90
67273;DHT22;54190;49.770;9.250;2022-10-15T07:57:16;14.90;99.90
67273;DHT22;54190;49.770;9.250;2022-10-15T07:59:42;14.90;99.90
67273;DHT22;54190;49.770;9.250;2022-10-15T08:02:14;14.90;99.90
67273;DHT22;54190;49.770;9.250;2022-10-15T08:04:41;15.00;99.90
67273;DHT22;54190;49.770;9.250;2022-10-15T08:07:06;15.00;99.90
67273;DHT22;54190;49.770;9.250;2022-10-15T08:09:32;15.00;99.90
67273;DHT22;54190;49.770;9.250;2022-10-15T08:11:58;15.10;99.90
67273;DHT22;54190;49.770;9.250;2022-10-15T08:14:23;15.10;99.90
67273;DHT22;54190;49.770;9.250;2022-10-15T08:16:49;15.20;99.90
67273;DHT22;54190;49.770;9.250;2022-10-15T08:19:15;15.20;99.90
67273;DHT22;54190;49.770;9.250;2022-10-15T08:21:43;15.30;99.90
67273;DHT22;54190;49.770;9.250;2022-10-15T08:24:09;15.30;99.90
67273;DHT22;54190;49.770;9.250;2022-10-15T08:26:35;15.30;99.90
67273;DHT22;54190;49.770;9.250;2022-10-15T08:29:01;15.40;99.90
67273;DHT22;54190;49.770;9.250;2022-10-15T08:31:26;15.40;99.90
67273;DHT22;54190;49.770;9.250;2022-10-15T08:33:52;15.50;99.90
67273;DHT22;54190;49.770;9.250;2022-10-15T08:36:18;15.50;99.90
67273;DHT22;54190;49.770;9.250;2022-10-15T08:38:44;15.50;99.90
67273;DHT22;54190;49.770;9.250;2022-10-15T08:41:31;15.50;99.90
67273;DHT22;54190;49.770;9.250;2022-10-15T08:43:59;15.60;99.90
67273;DHT22;54190;49.770;9.250;2022-10-15T08:46:45;15.60;99.90
67273;DHT22;54190;49.770;9.250;2022-10-15T08:52:50;15.70;99.90
67273;DHT22;54190;49.770;9.250;2022-10-15T08:54:52;15.70;99.90
67273;DHT22;54190;49.770;9.250;2022-10-15T09:00:18;15.80;99.90
67273;DHT22;54190;49.770;9.250;2022-10-15T09:08:20;15.90;99.90
67273;DHT22;54190;49.770;9.250;2022-10-15T09:10:53;15.90;99.90
67273;DHT22;54190;49.770;9.250;2022-10-15T09:13:29;15.90;99.90
67273;DHT22;54190;49.770;9.250;2022-10-15T09:16:00;16.00;99.90
67273;DHT22;54190;49.770;9.250;2022-10-15T09:18:32;16.00;99.90
67273;DHT22;54190;49.770;9.250;2022-10-15T09:21:01;16.00;99.90
67273;DHT22;54190;49.770;9.250;2022-10-15T09:23:28;16.10;99.90
67273;DHT22;54190;49.770;9.250;2022-10-15T09:26:25;16.00;99.90
67273;DHT22;54190;49.770;9.250;2022-10-15T09:31:47;16.10;99.90
67273;DHT22;54190;49.770;9.250;2022-10-15T09:34:24;16.10;99.90
67273;DHT22;54190;49.770;9.250;2022-10-15T09:36:55;16.10;99.90
67273;DHT22;54190;49.770;9.250;2022-10-15T09:42:27;16.10;99.90
67273;DHT22;54190;49.770;9.250;2022-10-15T09:44:58;16.10;99.90
67273;DHT22;54190;49.770;9.250;2022-10-15T09:47:30;16.10;99.90
67273;DHT22;54190;49.770;9.250;2022-10-15T09:49:59;16.10;99.90
67273;DHT22;54190;49.770;9.250;2022-10-15T09:55:10;16.10;99.90
67273;DHT22;54190;49.770;9.250;2022-10-15T09:57:46;16.10;99.90
67273;DHT22;54190;49.770;9.250;2022-10-15T10:00:13;16.20;99.90
67273;DHT22;54190;49.770;9.250;2022-10-15T10:02:39;16.20;99.90
67273;DHT22;54190;49.770;9.250;2022-10-15T10:05:29;16.20;99.90
67273;DHT22;54190;49.770;9.250;2022-10-15T10:08:08;16.20;99.90
67273;DHT22;54190;49.770;9.250;2022-10-15T10:10:36;16.30;99.90
67273;DHT22;54190;49.770;9.250;2022-10-15T10:13:31;16.40;99.90
67273;DHT22;54190;49.770;9.250;2022-10-15T10:16:04;16.40;99.90
67273;DHT22;54190;49.770;9.250;2022-10-15T10:18:31;16.40;99.90
67273;DHT22;54190;49.770;9.250;2022-10-15T10:21:00;16.50;99.90
67273;DHT22;54190;49.770;9.250;2022-10-15T10:25:57;16.50;99.90
67273;DHT22;54190;49.770;9.250;2022-10-15T10:31:01;16.70;99.90
67273;DHT22;54190;49.770;9.250;2022-10-15T10:36:07;16.70;99.90
67273;DHT22;54190;49.770;9.250;2022-10-15T10:39:20;16.70;99.90
67273;DHT22;54190;49.770;9.250;2022-10-15T10:42:01;16.80;99.90
67273;DHT22;54190;49.770;9.250;2022-10-15T10:44:35;16.90;99.90
67273;DHT22;54190;49.770;9.250;2022-10-15T10:47:17;16.90;99.90
67273;DHT22;54190;49.770;9.250;2022-10-15T10:49:53;16.90;99.90
67273;DHT22;54190;49.770;9.250;2022-10-15T10:52:36;16.90;99.90
67273;DHT22;54190;49.770;9.250;2022-10-15T10:55:20;17.00;99.90
67273;DHT22;54190;49.770;9.250;2022-10-15T10:57:57;17.00;99.90
67273;DHT22;54190;49.770;9.250;2022-10-15T11:00:40;17.00;99.90
67273;DHT22;54190;49.770;9.250;2022-10-15T11:03:29;17.00;99.90
67273;DHT22;54190;49.770;9.250;2022-10-15T11:08:51;17.10;99.90
67273;DHT22;54190;49.770;9.250;2022-10-15T11:13:53;17.00;99.90
67273;DHT22;54190;49.770;9.250;2022-10-15T11:16:58;17.00;99.90
67273;DHT22;54190;49.770;9.250;2022-10-15T11:19:46;17.00;99.90
67273;DHT22;54190;49.770;9.250;2022-10-15T11:25:22;17.00;99.90
67273;DHT22;54190;49.770;9.250;2022-10-15T11:53:48;17.30;99.90
67273;DHT22;54190;49.770;9.250;2022-10-15T11:56:03;17.40;99.90
67273;DHT22;54190;49.770;9.250;2022-10-15T11:58:37;17.60;99.90
67273;DHT22;54190;49.770;9.250;2022-10-15T12:01:35;17.80;99.90
67273;DHT22;54190;49.770;9.250;2022-10-15T12:04:26;18.00;99.90
67273;DHT22;54190;49.770;9.250;2022-10-15T12:06:56;18.00;99.90
67273;DHT22;54190;49.770;9.250;2022-10-15T12:09:30;18.10;99.90
67273;DHT22;54190;49.770;9.250;2022-10-15T12:12:07;18.10;99.90
67273;DHT22;54190;49.770;9.250;2022-10-15T12:14:51;18.00;99.90
67273;DHT22;54190;49.770;9.250;2022-10-15T12:17:29;18.00;99.90
67273;DHT22;54190;49.770;9.250;2022-10-15T12:20:06;17.90;99.90
67273;DHT22;54190;49.770;9.250;2022-10-15T12:22:55;17.90;99.90
67273;DHT22;54190;49.770;9.250;2022-10-15T12:30:33;17.90;99.90
67273;DHT22;54190;49.770;9.250;2022-10-15T12:33:03;17.90;99.90
67273;DHT22;54190;49.770;9.250;2022-10-15T12:38:32;17.90;99.90
67273;DHT22;54190;49.770;9.250;2022-10-15T12:41:10;17.90;99.90
67273;DHT22;54190;49.770;9.250;2022-10-15T12:43:42;17.90;99.90
67273;DHT22;54190;49.770;9.250;2022-10-15T12:46:10;17.80;99.90
67273;DHT22;54190;49.770;9.250;2022-10-15T12:48:40;17.80;99.90
67273;DHT22;54190;49.770;9.250;2022-10-15T12:53:43;17.70;99.90
67273;DHT22;54190;49.770;9.250;2022-10-15T13:11:52;17.60;99.90
67273;DHT22;54190;49.770;9.250;2022-10-15T13:14:31;17.60;99.90
67273;DHT22;54190;49.770;9.250;2022-10-15T13:17:01;17.50;99.90
67273;DHT22;54190;49.770;9.250;2022-10-15T13:19:36;17.40;99.90
67273;DHT22;54190;49.770;9.250;2022-10-15T13:22:05;17.40;99.90
67273;DHT22;54190;49.770;9.250;2022-10-15T13:24:42;17.30;99.90
67273;DHT22;54190;49.770;9.250;2022-10-15T13:27:33;17.30;99.90
67273;DHT22;54190;49.770;9.250;2022-10-15T13:30:09;17.30;99.90
67273;DHT22;54190;49.770;9.250;2022-10-15T13:32:50;17.30;99.90
67273;DHT22;54190;49.770;9.250;2022-10-15T13:35:20;17.20;99.90
67273;DHT22;54190;49.770;9.250;2022-10-15T13:37:46;17.20;99.90
67273;DHT22;54190;49.770;9.250;2022-10-15T13:40:31;17.20;99.90
67273;DHT22;54190;49.770;9.250;2022-10-15T13:43:17;17.10;99.90
67273;DHT22;54190;49.770;9.250;2022-10-15T13:45:57;17.00;99.90
67273;DHT22;54190;49.770;9.250;2022-10-15T13:48:28;17.00;99.90
67273;DHT22;54190;49.770;9.250;2022-10-15T13:50:56;17.00;99.90
67273;DHT22;54190;49.770;9.250;2022-10-15T13:53:27;17.00;99.90
67273;DHT22;54190;49.770;9.250;2022-10-15T13:55:57;17.00;99.90
67273;DHT22;54190;49.770;9.250;2022-10-15T13:58:32;17.00;99.90
67273;DHT22;54190;49.770;9.250;2022-10-15T14:03:32;17.00;99.90
67273;DHT22;54190;49.770;9.250;2022-10-15T14:06:53;17.00;99.90
67273;DHT22;54190;49.770;9.250;2022-10-15T14:08:56;17.00;99.90
67273;DHT22;54190;49.770;9.250;2022-10-15T14:11:23;16.90;99.90
67273;DHT22;54190;49.770;9.250;2022-10-15T14:13:54;16.90;99.90
67273;DHT22;54190;49.770;9.250;2022-10-15T14:16:27;16.90;99.90
67273;DHT22;54190;49.770;9.250;2022-10-15T14:19:11;16.80;99.90
67273;DHT22;54190;49.770;9.250;2022-10-15T14:21:44;16.80;99.90
67273;DHT22;54190;49.770;9.250;2022-10-15T14:24:37;16.80;99.90
67273;DHT22;54190;49.770;9.250;2022-10-15T14:27:16;16.70;99.90
67273;DHT22;54190;49.770;9.250;2022-10-15T14:29:53;16.70;99.90
67273;DHT22;54190;49.770;9.250;2022-10-15T14:32:28;16.70;99.90
67273;DHT22;54190;49.770;9.250;2022-10-15T14:34:59;16.70;99.90
67273;DHT22;54190;49.770;9.250;2022-10-15T14:42:46;16.70;99.90
67273;DHT22;54190;49.770;9.250;2022-10-15T14:45:26;16.60;99.90
67273;DHT22;54190;49.770;9.250;2022-10-15T14:48:01;16.70;99.90
67273;DHT22;54190;49.770;9.250;2022-10-15T14:50:34;16.60;99.90
67273;DHT22;54190;49.770;9.250;2022-10-15T14:53:05;16.60;99.90
67273;DHT22;54190;49.770;9.250;2022-10-15T14:55:35;16.60;99.90
67273;DHT22;54190;49.770;9.250;2022-10-15T14:58:13;16.50;99.90
67273;DHT22;54190;49.770;9.250;2022-10-15T15:00:46;16.50;99.90
67273;DHT22;54190;49.770;9.250;2022-10-15T15:03:18;16.40;99.90
67273;DHT22;54190;49.770;9.250;2022-10-15T15:05:47;16.40;99.90
67273;DHT22;54190;49.770;9.250;2022-10-15T15:08:13;16.40;99.90
67273;DHT22;54190;49.770;9.250;2022-10-15T15:10:40;16.40;99.90
67273;DHT22;54190;49.770;9.250;2022-10-15T15:13:06;16.40;99.90
67273;DHT22;54190;49.770;9.250;2022-10-15T15:15:35;16.40;99.90
67273;DHT22;54190;49.770;9.250;2022-10-15T15:18:00;16.50;99.90
67273;DHT22;54190;49.770;9.250;2022-10-15T15:20:26;16.40;99.90
67273;DHT22;54190;49.770;9.250;2022-10-15T15:22:53;16.40;99.90
67273;DHT22;54190;49.770;9.250;2022-10-15T15:25:28;16.30;99.90
67273;DHT22;54190;49.770;9.250;2022-10-15T15:27:54;16.30;99.90
67273;DHT22;54190;49.770;9.250;2022-10-15T15:30:22;16.30;99.90
67273;DHT22;54190;49.770;9.250;2022-10-15T15:32:48;16.40;99.90
67273;DHT22;54190;49.770;9.250;2022-10-15T15:35:30;16.40;99.90
67273;DHT22;54190;49.770;9.250;2022-10-15T15:37:57;16.40;99.90
67273;DHT22;54190;49.770;9.250;2022-10-15T15:40:22;16.40;99.90
67273;DHT22;54190;49.770;9.250;2022-10-15T15:42:48;16.30;99.90
67273;DHT22;54190;49.770;9.250;2022-10-15T15:47:44;16.30;99.90
67273;DHT22;54190;49.770;9.250;2022-10-15T15:50:09;16.30;99.90
67273;DHT22;54190;49.770;9.250;2022-10-15T15:52:35;16.30;99.90
67273;DHT22;54190;49.770;9.250;2022-10-15T15:55:01;16.30;99.90
67273;DHT22;54190;49.770;9.250;2022-10-15T15:57:26;16.30;99.90
67273;DHT22;54190;49.770;9.250;2022-10-15T15:59:52;16.30;99.90
67273;DHT22;54190;49.770;9.250;2022-10-15T16:02:18;16.30;99.90
67273;DHT22;54190;49.770;9.250;2022-10-15T16:04:43;16.30;99.90
67273;DHT22;54190;49.770;9.250;2022-10-15T16:07:10;16.30;99.90
67273;DHT22;54190;49.770;9.250;2022-10-15T16:09:36;16.30;99.90
67273;DHT22;54190;49.770;9.250;2022-10-15T16:12:02;16.30;99.90
67273;DHT22;54190;49.770;9.250;2022-10-15T16:14:28;16.30;99.90
67273;DHT22;54190;49.770;9.250;2022-10-15T16:16:54;16.30;99.90
67273;DHT22;54190;49.770;9.250;2022-10-15T16:19:20;16.30;99.90
67273;DHT22;54190;49.770;9.250;2022-10-15T16:21:45;16.30;99.90
67273;DHT22;54190;49.770;9.250;2022-10-15T16:24:11;16.30;99.90
67273;DHT22;54190;49.770;9.250;2022-10-15T16:26:37;16.30;99.90
67273;DHT22;54190;49.770;9.250;2022-10-15T16:29:03;16.30;99.90
67273;DHT22;54190;49.770;9.250;2022-10-15T16:31:28;16.20;99.90
67273;DHT22;54190;49.770;9.250;2022-10-15T16:33:57;16.20;99.90
67273;DHT22;54190;49.770;9.250;2022-10-15T16:36:23;16.20;99.90
67273;DHT22;54190;49.770;9.250;2022-10-15T16:38:49;16.20;99.90
67273;DHT22;54190;49.770;9.250;2022-10-15T16:41:15;16.10;99.90
67273;DHT22;54190;49.770;9.250;2022-10-15T16:43:43;16.10;99.90
67273;DHT22;54190;49.770;9.250;2022-10-15T16:46:09;16.10;99.90
67273;DHT22;54190;49.770;9.250;2022-10-15T16:48:35;16.20;99.90
67273;DHT22;54190;49.770;9.250;2022-10-15T16:51:10;16.20;99.90
67273;DHT22;54190;49.770;9.250;2022-10-15T16:53:38;16.10;99.90
67273;DHT22;54190;49.770;9.250;2022-10-15T16:56:08;16.10;99.90
67273;DHT22;54190;49.770;9.250;2022-10-15T16:58:34;16.10;99.90
67273;DHT22;54190;49.770;9.250;2022-10-15T17:01:06;16.10;99.90
67273;DHT22;54190;49.770;9.250;2022-10-15T17:03:34;16.10;99.90
67273;DHT22;54190;49.770;9.250;2022-10-15T17:06:01;16.10;99.90
67273;DHT22;54190;49.770;9.250;2022-10-15T17:08:55;16.10;99.90
67273;DHT22;54190;49.770;9.250;2022-10-15T17:11:32;16.10;99.90
67273;DHT22;54190;49.770;9.250;2022-10-15T17:14:01;16.10;99.90
67273;DHT22;54190;49.770;9.250;2022-10-15T17:16:33;16.00;99.90
67273;DHT22;54190;49.770;9.250;2022-10-15T17:19:00;16.00;99.90
67273;DHT22;54190;49.770;9.250;2022-10-15T17:21:28;16.00;99.90
67273;DHT22;54190;49.770;9.250;2022-10-15T17:23:56;16.00;99.90
67273;DHT22;54190;49.770;9.250;2022-10-15T17:26:24;16.00;99.90
67273;DHT22;54190;49.770;9.250;2022-10-15T17:28:51;16.00;99.90
67273;DHT22;54190;49.770;9.250;2022-10-15T17:31:19;16.00;99.90
67273;DHT22;54190;49.770;9.250;2022-10-15T17:33:46;16.00;99.90
67273;DHT22;54190;49.770;9.250;2022-10-15T17:36:21;16.00;99.90
67273;DHT22;54190;49.770;9.250;2022-10-15T17:38:47;16.00;99.90
67273;DHT22;54190;49.770;9.250;2022-10-15T17:41:19;16.00;99.90
67273;DHT22;54190;49.770;9.250;2022-10-15T17:43:47;16.00;99.90
67273;DHT22;54190;49.770;9.250;2022-10-15T17:46:18;16.00;99.90
67273;DHT22;54190;49.770;9.250;2022-10-15T17:48:45;16.00;99.90